Time;durP1;ratioP1;P1;durP2;ratioP2;P2;SDS_P1;SDS_P2;PMS_P1;PMS_P2;Temp;Humidity;BMP_temperature;BMP_pressure;BME280_temperature;BME280_humidity;BME280_pressure;Samples;Min_cycle;Max_cycle;Signal;HPM_P1;HPM_P2
2021/09/11 00:01:59;;;;;;;8.87;8.07;;;20.90;99.90;;;;;;5037845;28;20188;-50
2021/09/11 00:04:25;;;;;;;8.40;7.70;;;20.80;99.90;;;;;;5031673;28;20177;-50
2021/09/11 00:06:50;;;;;;;7.83;7.23;;;20.80;99.90;;;;;;5030190;28;20271;-50
2021/09/11 00:09:16;;;;;;;8.63;7.90;;;20.90;99.90;;;;;;5027021;28;20668;-50
2021/09/11 00:11:41;;;;;;;9.30;8.50;;;20.90;99.90;;;;;;5031703;28;20587;-51
2021/09/11 00:14:07;;;;;;;8.00;7.40;;;20.90;99.90;;;;;;5029551;28;20280;-50
2021/09/11 00:16:33;;;;;;;8.70;8.00;;;20.90;99.90;;;;;;5033875;28;20206;-50
2021/09/11 00:18:58;;;;;;;9.40;8.60;;;20.80;99.90;;;;;;5035234;28;20222;-50
2021/09/11 00:21:24;;;;;;;9.17;8.37;;;20.70;99.90;;;;;;5027634;28;20183;-50
2021/09/11 00:23:50;;;;;;;8.53;7.83;;;20.70;99.90;;;;;;5036065;28;20182;-50
2021/09/11 00:26:16;;;;;;;8.73;7.93;;;20.70;99.90;;;;;;5036510;28;20285;-51
2021/09/11 00:28:41;;;;;;;8.90;8.10;;;20.70;99.90;;;;;;5030463;28;20206;-51
2021/09/11 00:31:07;;;;;;;8.80;8.10;;;20.70;99.90;;;;;;5030123;28;20276;-50
2021/09/11 00:33:33;;;;;;;10.80;8.25;;;20.60;99.90;;;;;;5031234;28;20178;-50
2021/09/11 00:35:59;;;;;;;8.90;8.20;;;20.60;99.90;;;;;;5027100;28;20645;-50
2021/09/11 00:38:24;;;;;;;9.33;8.53;;;20.60;99.90;;;;;;5030306;28;20221;-50
2021/09/11 00:40:50;;;;;;;8.97;8.20;;;20.50;99.90;;;;;;5033531;28;20259;-50
2021/09/11 00:43:23;;;;;;;9.30;8.60;;;20.50;99.90;;;;;;5027069;28;20208;-51
2021/09/11 00:45:49;;;;;;;8.00;7.40;;;20.50;99.90;;;;;;5037217;28;20562;-50
2021/09/11 00:48:14;;;;;;;8.43;7.73;;;20.50;99.90;;;;;;5030759;28;20214;-50
2021/09/11 00:50:40;;;;;;;9.63;7.90;;;20.40;99.90;;;;;;5031065;28;20198;-50
2021/09/11 00:53:05;;;;;;;8.63;7.83;;;20.50;99.90;;;;;;5030078;28;20264;-50
2021/09/11 00:55:31;;;;;;;8.93;8.20;;;20.50;99.90;;;;;;5034672;28;20609;-50
2021/09/11 00:57:57;;;;;;;7.93;7.23;;;20.50;99.90;;;;;;5027744;28;20327;-50
2021/09/11 01:00:22;;;;;;;8.63;7.77;;;20.40;99.90;;;;;;5037867;28;20178;-50
2021/09/11 01:02:48;;;;;;;8.33;7.60;;;20.40;99.90;;;;;;5037795;28;20247;-50
2021/09/11 01:05:13;;;;;;;8.47;7.77;;;20.50;99.90;;;;;;5030866;28;20537;-50
2021/09/11 01:07:41;;;;;;;7.73;7.03;;;20.50;99.90;;;;;;5026017;28;20206;-50
2021/09/11 01:10:08;;;;;;;8.38;7.68;;;20.60;99.90;;;;;;5037349;28;20185;-50
2021/09/11 01:12:33;;;;;;;9.05;8.35;;;20.50;99.90;;;;;;5031354;28;20671;-51
2021/09/11 01:15:08;;;;;;;8.03;6.93;;;20.50;99.90;;;;;;5030893;28;20273;-50
2021/09/11 01:17:34;;;;;;;7.45;6.85;;;20.50;99.90;;;;;;5031529;28;20296;-50
2021/09/11 01:20:00;;;;;;;7.95;7.35;;;20.60;99.90;;;;;;5032278;28;20252;-50
2021/09/11 01:22:25;;;;;;;7.70;7.10;;;20.50;99.90;;;;;;5022833;28;20189;-50
2021/09/11 01:24:55;;;;;;;7.50;6.90;;;20.60;99.90;;;;;;5030433;28;20197;-51
2021/09/11 01:27:21;;;;;;;7.35;6.72;;;20.60;99.90;;;;;;5028563;28;20214;-50
2021/09/11 01:29:55;;;;;;;7.13;6.53;;;20.60;99.90;;;;;;5030181;28;20239;-50
2021/09/11 01:32:21;;;;;;;7.53;6.30;;;20.60;99.90;;;;;;5038101;28;20196;-50
2021/09/11 01:34:47;;;;;;;7.15;6.57;;;20.60;99.90;;;;;;5040651;28;20228;-50
2021/09/11 01:37:14;;;;;;;7.33;6.70;;;20.50;99.90;;;;;;5028846;28;20662;-50
2021/09/11 01:39:40;;;;;;;7.38;6.78;;;20.50;99.90;;;;;;5028352;28;20178;-50
2021/09/11 01:42:05;;;;;;;7.47;6.80;;;20.50;99.90;;;;;;5030376;28;20272;-50
2021/09/11 01:44:31;;;;;;;7.60;7.00;;;20.40;99.90;;;;;;5030418;28;21093;-50
2021/09/11 01:46:57;;;;;;;7.03;6.50;;;20.40;99.90;;;;;;5030220;28;20596;-50
2021/09/11 01:49:23;;;;;;;7.80;7.20;;;20.40;99.90;;;;;;5029874;28;20691;-50
2021/09/11 01:51:49;;;;;;;7.13;6.50;;;20.30;99.90;;;;;;5028864;28;20193;-51
2021/09/11 01:54:14;;;;;;;7.70;7.10;;;20.30;99.90;;;;;;5031276;28;20178;-51
2021/09/11 01:56:40;;;;;;;7.20;6.60;;;20.30;99.90;;;;;;5035481;28;20520;-51
2021/09/11 01:59:05;;;;;;;7.27;6.67;;;20.20;99.90;;;;;;5025581;28;20269;-51
2021/09/11 02:01:31;;;;;;;6.87;6.30;;;20.10;99.90;;;;;;5028495;28;20209;-50
2021/09/11 02:03:56;;;;;;;7.00;6.40;;;20.20;99.90;;;;;;5030159;28;20702;-50
2021/09/11 02:06:23;;;;;;;7.60;7.00;;;20.20;99.90;;;;;;5028015;28;20539;-50
2021/09/11 02:08:48;;;;;;;7.00;6.38;;;20.20;99.90;;;;;;5030101;28;20277;-50
2021/09/11 02:11:14;;;;;;;7.27;6.67;;;20.20;99.90;;;;;;5029832;28;20297;-50
2021/09/11 02:13:41;;;;;;;7.20;6.60;;;20.10;99.90;;;;;;5034199;28;20265;-50
2021/09/11 02:16:07;;;;;;;7.47;6.78;;;20.10;99.90;;;;;;5031120;28;20186;-50
2021/09/11 02:18:33;;;;;;;8.37;7.40;;;20.10;99.90;;;;;;5027946;28;20267;-51
2021/09/11 02:20:58;;;;;;;8.23;7.53;;;20.20;99.90;;;;;;5030765;28;20256;-50
2021/09/11 02:23:24;;;;;;;7.30;6.70;;;20.20;99.90;;;;;;5021900;28;20663;-50
2021/09/11 02:25:51;;;;;;;8.07;7.47;;;20.10;99.90;;;;;;5030313;28;20177;-50
2021/09/11 02:28:17;;;;;;;8.02;7.32;;;19.90;99.90;;;;;;5026393;28;20729;-50
2021/09/11 02:30:43;;;;;;;7.43;6.77;;;20.10;99.90;;;;;;5030107;28;20277;-50
2021/09/11 02:33:10;;;;;;;7.57;6.95;;;20.20;99.90;;;;;;5033740;28;20277;-50
2021/09/11 02:35:35;;;;;;;7.50;6.90;;;20.20;99.90;;;;;;5026134;28;20198;-50
2021/09/11 02:38:01;;;;;;;7.20;6.60;;;20.20;99.90;;;;;;5022879;28;20218;-50
2021/09/11 02:40:26;;;;;;;7.07;6.57;;;20.20;99.90;;;;;;5027787;28;20289;-50
2021/09/11 02:42:52;;;;;;;7.27;6.67;;;20.20;99.90;;;;;;5024380;28;20190;-50
2021/09/11 02:45:18;;;;;;;7.03;6.53;;;20.20;99.90;;;;;;5034567;28;20193;-50
2021/09/11 02:47:43;;;;;;;7.50;6.90;;;20.20;99.90;;;;;;5035388;28;20232;-50
2021/09/11 02:50:10;;;;;;;7.70;7.00;;;20.20;99.90;;;;;;5037442;28;20177;-50
2021/09/11 02:52:35;;;;;;;7.13;6.63;;;20.20;99.90;;;;;;5032753;28;20182;-50
2021/09/11 02:55:01;;;;;;;8.43;7.77;;;20.10;99.90;;;;;;5038164;28;20283;-50
2021/09/11 02:57:27;;;;;;;8.57;7.87;;;20.10;99.90;;;;;;5026325;28;20210;-50
2021/09/11 02:59:52;;;;;;;7.43;6.90;;;20.10;99.90;;;;;;5030923;28;20304;-51
2021/09/11 03:02:18;;;;;;;7.87;7.27;;;20.00;99.90;;;;;;5033050;28;20721;-50
2021/09/11 03:04:43;;;;;;;8.60;7.80;;;20.00;99.90;;;;;;5032999;28;20182;-50
2021/09/11 03:07:09;;;;;;;7.60;7.00;;;20.10;99.90;;;;;;5029552;28;20644;-50
2021/09/11 03:09:34;;;;;;;8.47;7.73;;;20.00;99.90;;;;;;5035647;28;20666;-50
2021/09/11 03:12:00;;;;;;;8.20;7.50;;;19.90;99.90;;;;;;5031883;28;20186;-50
2021/09/11 03:14:26;;;;;;;8.67;7.97;;;19.90;99.90;;;;;;5030855;28;20542;-50
2021/09/11 03:16:51;;;;;;;8.47;7.77;;;19.90;99.90;;;;;;5031930;28;20226;-50
2021/09/11 03:19:17;;;;;;;8.93;7.80;;;19.90;99.90;;;;;;5035196;28;20181;-50
2021/09/11 03:21:43;;;;;;;7.57;6.97;;;19.90;99.90;;;;;;5029850;28;20725;-50
2021/09/11 03:24:08;;;;;;;8.37;7.70;;;19.90;99.90;;;;;;5032832;28;20666;-50
2021/09/11 03:26:34;;;;;;;8.00;7.30;;;19.90;99.90;;;;;;5032778;28;20236;-50
2021/09/11 03:28:59;;;;;;;8.60;7.80;;;19.80;99.90;;;;;;5026029;28;20237;-51
2021/09/11 03:31:25;;;;;;;8.00;7.30;;;19.80;99.90;;;;;;5025453;28;20195;-50
2021/09/11 03:33:50;;;;;;;8.40;7.60;;;19.90;99.90;;;;;;5039231;28;20193;-50
2021/09/11 03:36:16;;;;;;;8.30;7.50;;;19.80;99.90;;;;;;5028451;28;20667;-50
2021/09/11 03:38:41;;;;;;;8.27;7.57;;;19.90;99.90;;;;;;5028815;28;20212;-50
2021/09/11 03:41:07;;;;;;;7.97;7.17;;;19.90;99.90;;;;;;5042443;28;20249;-50
2021/09/11 03:43:33;;;;;;;8.30;7.60;;;19.90;99.90;;;;;;5026506;28;20270;-50
2021/09/11 03:45:58;;;;;;;8.37;7.70;;;19.90;99.90;;;;;;5032553;28;20683;-51
2021/09/11 03:48:24;;;;;;;7.63;7.03;;;19.80;99.90;;;;;;5031775;28;20202;-50
2021/09/11 03:50:49;;;;;;;7.67;6.97;;;19.80;99.90;;;;;;5032434;28;20200;-50
2021/09/11 03:53:15;;;;;;;8.20;7.53;;;19.80;99.90;;;;;;5030524;28;20188;-50
2021/09/11 03:55:41;;;;;;;7.87;7.27;;;19.90;99.90;;;;;;5031934;28;20186;-50
2021/09/11 03:58:08;;;;;;;10.70;7.17;;;19.80;99.90;;;;;;5022630;28;20219;-50
2021/09/11 04:00:34;;;;;;;8.32;7.63;;;19.80;99.90;;;;;;5034303;28;20181;-50
2021/09/11 04:02:59;;;;;;;7.55;6.28;;;19.80;99.90;;;;;;5039373;28;20187;-50
2021/09/11 04:05:25;;;;;;;7.50;6.90;;;19.60;99.90;;;;;;5031971;28;20194;-51
2021/09/11 04:07:51;;;;;;;7.90;7.20;;;19.80;99.90;;;;;;5030066;28;20691;-51
2021/09/11 04:10:16;;;;;;;7.90;7.20;;;19.70;99.90;;;;;;5030492;28;20193;-51
2021/09/11 04:12:42;;;;;;;7.47;6.97;;;19.70;99.90;;;;;;5028462;28;20267;-50
2021/09/11 04:15:08;;;;;;;7.40;6.70;;;19.80;99.90;;;;;;5036842;28;20201;-50
2021/09/11 04:17:34;;;;;;;7.30;6.70;;;19.70;99.90;;;;;;5026504;28;20701;-51
2021/09/11 04:19:59;;;;;;;7.23;6.53;;;19.70;99.90;;;;;;5033263;28;20663;-50
2021/09/11 04:22:25;;;;;;;8.03;7.10;;;19.70;99.90;;;;;;5036997;28;20981;-50
2021/09/11 04:24:52;;;;;;;7.80;6.90;;;19.50;99.90;;;;;;5039597;28;20182;-50
2021/09/11 04:27:17;;;;;;;8.50;7.70;;;19.80;99.90;;;;;;5030957;28;20268;-50
2021/09/11 04:29:43;;;;;;;7.50;6.90;;;19.90;99.90;;;;;;5030552;28;20520;-50
2021/09/11 04:32:08;;;;;;;6.93;6.43;;;19.90;99.90;;;;;;5031454;28;20345;-50
2021/09/11 04:34:34;;;;;;;7.40;6.80;;;19.90;99.90;;;;;;5031326;28;20197;-50
2021/09/11 04:36:59;;;;;;;7.43;6.70;;;19.90;99.90;;;;;;5028179;28;20722;-50
2021/09/11 04:39:25;;;;;;;7.90;7.30;;;19.80;99.90;;;;;;5014110;28;20175;-50
2021/09/11 04:41:51;;;;;;;7.60;7.00;;;19.90;99.90;;;;;;5025790;28;20226;-50
2021/09/11 04:44:16;;;;;;;7.10;6.50;;;19.90;99.90;;;;;;5032218;28;20655;-50
2021/09/11 04:46:42;;;;;;;7.43;6.83;;;19.90;99.90;;;;;;5033279;28;20599;-50
2021/09/11 04:49:07;;;;;;;7.30;6.60;;;19.80;99.90;;;;;;5030689;28;20205;-50
2021/09/11 04:51:33;;;;;;;6.57;6.07;;;19.90;99.90;;;;;;5029940;28;20201;-50
2021/09/11 04:53:58;;;;;;;5.30;4.90;;;19.80;99.90;;;;;;5031433;28;20616;-50
2021/09/11 04:56:24;;;;;;;4.73;4.33;;;19.90;99.90;;;;;;5030802;28;20304;-50
2021/09/11 04:58:50;;;;;;;4.40;4.10;;;19.60;99.90;;;;;;5028908;28;20182;-50
2021/09/11 05:01:16;;;;;;;6.35;4.63;;;19.90;99.90;;;;;;5025009;28;20193;-50
2021/09/11 05:03:42;;;;;;;4.87;4.40;;;19.90;99.90;;;;;;5023497;28;20416;-50
2021/09/11 05:06:07;;;;;;;7.43;4.63;;;19.90;99.90;;;;;;5026516;28;20186;-50
2021/09/11 05:08:33;;;;;;;4.97;4.57;;;20.00;99.90;;;;;;5025247;28;20194;-50
2021/09/11 05:10:58;;;;;;;5.20;4.70;;;19.90;99.90;;;;;;5033222;28;20273;-50
2021/09/11 05:13:24;;;;;;;4.60;4.20;;;20.00;99.90;;;;;;5036559;28;20658;-50
2021/09/11 05:15:49;;;;;;;4.33;3.93;;;19.90;99.90;;;;;;5034689;28;20301;-50
2021/09/11 05:18:15;;;;;;;4.20;3.90;;;19.90;99.90;;;;;;5033059;28;20217;-50
2021/09/11 05:20:40;;;;;;;4.50;4.10;;;19.90;99.90;;;;;;5030092;28;20229;-50
2021/09/11 05:23:06;;;;;;;4.57;3.80;;;19.90;99.90;;;;;;5028093;28;20198;-50
2021/09/11 05:25:32;;;;;;;4.83;4.43;;;19.90;99.90;;;;;;5027276;28;20182;-50
2021/09/11 05:27:57;;;;;;;4.50;4.10;;;19.90;99.90;;;;;;5032994;28;20201;-50
2021/09/11 05:30:23;;;;;;;4.70;4.40;;;20.00;99.90;;;;;;5014978;28;20179;-50
2021/09/11 05:32:48;;;;;;;4.93;4.53;;;19.90;99.90;;;;;;5022375;28;20201;-50
2021/09/11 05:35:14;;;;;;;5.00;4.60;;;19.90;99.90;;;;;;5029820;28;20277;-50
2021/09/11 05:37:39;;;;;;;4.47;4.17;;;19.80;99.90;;;;;;5024379;28;20762;-50
2021/09/11 05:40:06;;;;;;;4.03;3.70;;;19.80;99.90;;;;;;5022342;28;20206;-50
2021/09/11 05:42:36;;;;;;;4.70;4.30;;;19.80;99.90;;;;;;5016885;28;20285;-51
2021/09/11 05:45:02;;;;;;;5.72;4.45;;;19.80;99.90;;;;;;5021138;28;20644;-50
2021/09/11 05:47:28;;;;;;;4.75;4.35;;;19.70;99.90;;;;;;5027004;28;20289;-50
2021/09/11 05:49:53;;;;;;;4.67;4.27;;;20.00;99.90;;;;;;5028673;28;20613;-50
2021/09/11 05:52:19;;;;;;;4.90;4.50;;;19.80;99.90;;;;;;5018013;28;20187;-50
2021/09/11 05:54:44;;;;;;;4.13;3.83;;;19.80;99.90;;;;;;5019893;28;20193;-50
2021/09/11 05:57:10;;;;;;;4.87;4.47;;;19.80;99.90;;;;;;5024625;28;21847;-50
2021/09/11 05:59:35;;;;;;;5.20;4.80;;;19.80;99.90;;;;;;5022180;28;20209;-50
2021/09/11 06:02:01;;;;;;;4.97;4.57;;;19.70;99.90;;;;;;5023199;28;20217;-50
2021/09/11 06:04:26;;;;;;;5.10;3.83;;;19.80;99.90;;;;;;5029121;28;20189;-50
2021/09/11 06:06:54;;;;;;;4.57;4.17;;;19.80;99.90;;;;;;5022886;28;20214;-51
2021/09/11 06:09:20;;;;;;;4.85;4.50;;;19.80;99.90;;;;;;5022434;28;20191;-50
2021/09/11 06:11:46;;;;;;;5.78;5.28;;;19.90;99.90;;;;;;5016776;28;20565;-50
2021/09/11 06:14:11;;;;;;;5.20;4.27;;;19.90;99.90;;;;;;5026013;28;20265;-50
2021/09/11 06:16:37;;;;;;;4.90;4.00;;;19.90;99.90;;;;;;5023979;28;20199;-54
2021/09/11 06:19:02;;;;;;;4.23;3.93;;;19.90;99.90;;;;;;5027120;28;20193;-54
2021/09/11 06:21:28;;;;;;;4.77;4.37;;;19.80;99.90;;;;;;5018159;28;20178;-53
2021/09/11 06:23:54;;;;;;;4.83;4.27;;;19.80;99.90;;;;;;5031775;28;20863;-55
2021/09/11 06:26:19;;;;;;;4.40;4.00;;;19.90;99.90;;;;;;5034958;28;20186;-56
2021/09/11 06:28:45;;;;;;;5.57;4.20;;;20.00;99.90;;;;;;5032511;28;20252;-56
2021/09/11 06:31:10;;;;;;;5.63;4.43;;;19.90;99.90;;;;;;5036182;28;20190;-56
2021/09/11 06:33:36;;;;;;;4.30;3.97;;;20.00;99.90;;;;;;5034405;28;20581;-56
2021/09/11 06:36:02;;;;;;;5.20;4.20;;;19.90;99.90;;;;;;5034165;28;20216;-56
2021/09/11 06:38:27;;;;;;;3.90;3.50;;;19.80;99.90;;;;;;5030720;28;20566;-55
2021/09/11 06:40:53;;;;;;;4.17;3.87;;;20.00;99.90;;;;;;5033344;28;20648;-55
2021/09/11 06:43:18;;;;;;;4.30;3.90;;;20.10;99.90;;;;;;5026850;28;20324;-56
2021/09/11 06:45:44;;;;;;;7.03;4.33;;;20.10;99.90;;;;;;5032367;28;20194;-56
2021/09/11 06:48:09;;;;;;;5.53;3.70;;;20.10;99.90;;;;;;5030675;28;20292;-49
2021/09/11 06:50:35;;;;;;;4.50;4.10;;;20.30;99.90;;;;;;5027902;28;20515;-49
2021/09/11 06:53:01;;;;;;;4.67;4.27;;;20.50;99.90;;;;;;5028443;28;20183;-49
2021/09/11 06:55:26;;;;;;;4.17;3.77;;;20.60;99.90;;;;;;5027650;28;20190;-50
2021/09/11 06:57:52;;;;;;;4.27;3.50;;;20.70;99.90;;;;;;5025237;28;20222;-49
2021/09/11 07:00:17;;;;;;;3.90;3.60;;;21.00;99.90;;;;;;5026737;28;20263;-49
2021/09/11 07:02:43;;;;;;;3.73;3.43;;;21.10;99.90;;;;;;5026737;28;20240;-49
2021/09/11 07:05:09;;;;;;;4.50;3.37;;;21.00;99.90;;;;;;5026721;28;20193;-49
2021/09/11 07:07:35;;;;;;;3.35;3.08;;;21.10;99.90;;;;;;5022622;28;20279;-49
2021/09/11 07:10:00;;;;;;;3.17;2.97;;;21.00;99.90;;;;;;5026491;28;20210;-49
2021/09/11 07:12:26;;;;;;;3.60;3.30;;;21.30;99.90;;;;;;5021763;28;20278;-49
2021/09/11 07:14:51;;;;;;;3.20;3.00;;;21.30;99.90;;;;;;5032498;28;20259;-49
2021/09/11 07:17:17;;;;;;;6.33;3.20;;;21.40;99.90;;;;;;5024230;28;20225;-48
2021/09/11 07:19:43;;;;;;;3.77;3.47;;;21.50;99.90;;;;;;5024356;28;20185;-49
2021/09/11 07:22:08;;;;;;;5.27;3.53;;;21.40;99.90;;;;;;5027350;28;20280;-49
2021/09/11 07:24:34;;;;;;;3.30;3.10;;;21.50;99.90;;;;;;5027317;28;20232;-49
2021/09/11 07:26:59;;;;;;;2.90;2.70;;;21.60;99.90;;;;;;5029483;28;20206;-49
2021/09/11 07:29:25;;;;;;;3.73;3.43;;;21.70;99.90;;;;;;5026591;28;20186;-48
2021/09/11 07:31:51;;;;;;;3.40;3.10;;;21.80;99.90;;;;;;5039254;28;20572;-49
2021/09/11 07:34:16;;;;;;;3.00;2.70;;;21.80;99.90;;;;;;5029904;28;20209;-49
2021/09/11 07:36:42;;;;;;;4.87;4.37;;;22.00;99.90;;;;;;5027056;28;20214;-49
2021/09/11 07:39:08;;;;;;;3.17;2.87;;;22.30;99.90;;;;;;5031206;28;20647;-49
2021/09/11 07:41:34;;;;;;;3.23;2.93;;;22.70;99.90;;;;;;5038135;28;20186;-49
2021/09/11 07:43:59;;;;;;;3.90;2.93;;;23.00;99.90;;;;;;5024505;28;20239;-50
2021/09/11 07:46:25;;;;;;;3.00;2.80;;;23.80;99.90;;;;;;5034220;28;20445;-49
2021/09/11 07:48:51;;;;;;;2.90;2.70;;;24.50;99.00;;;;;;5020689;28;20276;-49
2021/09/11 07:51:17;;;;;;;2.83;2.50;;;25.10;97.90;;;;;;5024072;28;20200;-49
2021/09/11 07:53:42;;;;;;;4.60;3.20;;;25.10;96.70;;;;;;5032128;28;20534;-49
2021/09/11 07:56:08;;;;;;;4.20;3.00;;;25.10;96.40;;;;;;5025088;28;20449;-49
2021/09/11 07:58:34;;;;;;;3.83;2.90;;;24.80;96.70;;;;;;5024135;28;20223;-49
2021/09/11 08:01:00;;;;;;;3.10;2.87;;;24.60;97.40;;;;;;5031821;28;20180;-49
2021/09/11 08:03:27;;;;;;;3.00;2.70;;;24.50;97.20;;;;;;5029894;28;20449;-49
2021/09/11 08:05:54;;;;;;;3.00;2.80;;;24.40;97.80;;;;;;5029796;28;20566;-50
2021/09/11 08:08:20;;;;;;;3.20;3.00;;;24.20;97.90;;;;;;5023452;28;20469;-49
2021/09/11 08:10:45;;;;;;;3.07;2.87;;;23.90;98.10;;;;;;5031479;28;20472;-50
2021/09/11 08:13:15;;;;;;;3.60;3.40;;;23.70;98.80;;;;;;5026260;28;20575;-50
2021/09/11 08:15:43;;;;;;;3.20;3.00;;;23.60;99.30;;;;;;5024371;28;20187;-50
2021/09/11 08:18:10;;;;;;;2.93;2.73;;;23.60;99.40;;;;;;5030736;28;20479;-49
2021/09/11 08:20:35;;;;;;;3.43;3.20;;;23.90;98.80;;;;;;5024271;28;20451;-52
2021/09/11 08:23:03;;;;;;;2.70;2.50;;;24.80;98.00;;;;;;5024970;28;20527;-52
2021/09/11 08:25:28;;;;;;;3.87;2.57;;;25.90;96.30;;;;;;5022983;28;20197;-52
2021/09/11 08:27:54;;;;;;;4.07;3.77;;;26.60;94.10;;;;;;5028710;28;20634;-52
2021/09/11 08:30:19;;;;;;;3.77;3.47;;;26.90;93.00;;;;;;5022109;28;20265;-52
2021/09/11 08:32:45;;;;;;;2.80;2.60;;;26.30;93.20;;;;;;5029694;28;20323;-52
2021/09/11 08:35:13;;;;;;;3.00;2.80;;;26.40;93.50;;;;;;5013096;28;20202;-52
2021/09/11 08:37:39;;;;;;;5.10;2.60;;;26.10;93.70;;;;;;5025437;28;20225;-49
2021/09/11 08:40:06;;;;;;;3.10;2.90;;;26.10;93.70;;;;;;5029310;28;20448;-49
2021/09/11 08:42:34;;;;;;;3.50;3.20;;;25.90;94.10;;;;;;5027106;28;20442;-49
2021/09/11 08:45:03;;;;;;;3.30;3.00;;;25.90;94.20;;;;;;5037249;28;20433;-48
2021/09/11 08:47:30;;;;;;;3.37;3.13;;;25.50;94.30;;;;;;5025854;28;21037;-48
2021/09/11 08:49:55;;;;;;;2.40;2.20;;;25.50;94.60;;;;;;5026779;28;20523;-49
2021/09/11 08:52:21;;;;;;;3.00;2.80;;;25.20;94.80;;;;;;5022702;28;20737;-48
2021/09/11 08:54:46;;;;;;;7.77;4.00;;;25.20;94.90;;;;;;5031989;28;20188;-48
2021/09/11 08:57:22;;;;;;;3.10;2.80;;;25.10;95.30;;;;;;5029553;28;20316;-48
2021/09/11 08:59:48;;;;;;;5.33;3.13;;;25.20;94.90;;;;;;5033449;28;20241;-49
2021/09/11 09:02:14;;;;;;;3.30;3.10;;;25.30;94.70;;;;;;5032773;28;20436;-48
2021/09/11 09:04:50;;;;;;;3.60;3.27;;;25.20;94.70;;;;;;5028387;28;20443;-48
2021/09/11 09:07:36;;;;;;;3.00;2.70;;;25.00;95.30;;;;;;5026851;28;20469;-49
2021/09/11 09:10:08;;;;;;;3.43;3.13;;;24.80;95.80;;;;;;5024942;28;20489;-48
2021/09/11 09:12:36;;;;;;;3.40;3.10;;;25.10;95.00;;;;;;5024590;28;20566;-49
2021/09/11 09:15:08;;;;;;;3.67;3.37;;;25.20;95.00;;;;;;5033082;28;20443;-49
2021/09/11 09:17:41;;;;;;;2.70;2.50;;;25.20;94.80;;;;;;5036516;28;20502;-49
2021/09/11 09:20:28;;;;;;;2.63;2.43;;;25.30;94.50;;;;;;5022159;28;20621;-48
2021/09/11 09:22:59;;;;;;;3.07;2.80;;;25.20;94.60;;;;;;5027417;28;20486;-49
2021/09/11 09:25:36;;;;;;;3.70;2.70;;;25.30;94.70;;;;;;5034861;28;20455;-48
2021/09/11 09:28:11;;;;;;;3.10;2.87;;;25.40;94.50;;;;;;5023965;28;20509;-48
2021/09/11 09:30:38;;;;;;;3.23;3.03;;;25.10;94.70;;;;;;5027105;28;20452;-49
2021/09/11 09:33:06;;;;;;;3.27;2.97;;;25.00;94.70;;;;;;5026014;28;20448;-48
2021/09/11 09:35:32;;;;;;;3.37;2.60;;;24.70;95.30;;;;;;5029671;28;20456;-48
2021/09/11 09:38:07;;;;;;;3.00;2.80;;;24.90;95.10;;;;;;5028282;28;20630;-49
2021/09/11 09:40:37;;;;;;;3.33;3.03;;;25.20;95.00;;;;;;5027487;28;20447;-49
2021/09/11 09:43:04;;;;;;;3.20;3.00;;;25.40;94.30;;;;;;5018676;28;20440;-48
2021/09/11 09:45:34;;;;;;;3.80;3.50;;;25.40;94.30;;;;;;5029280;28;21032;-48
2021/09/11 09:48:27;;;;;;;3.57;3.27;;;25.80;94.00;;;;;;5025438;28;20998;-49
2021/09/11 09:51:05;;;;;;;4.30;2.93;;;25.90;93.50;;;;;;5028917;28;20443;-49
2021/09/11 09:53:31;;;;;;;3.13;2.93;;;25.60;93.70;;;;;;5022508;28;20438;-51
2021/09/11 09:55:57;;;;;;;3.70;3.40;;;25.30;94.00;;;;;;5031774;28;20616;-49
2021/09/11 09:58:23;;;;;;;3.30;3.03;;;24.90;95.00;;;;;;5023767;28;20218;-50
2021/09/11 10:00:49;;;;;;;3.20;2.90;;;25.00;95.00;;;;;;5026803;28;20974;-50
2021/09/11 10:03:15;;;;;;;3.30;3.00;;;24.90;94.80;;;;;;5036789;28;20433;-50
2021/09/11 10:05:47;;;;;;;3.27;2.97;;;24.90;95.90;;;;;;5029780;28;20542;-50
2021/09/11 10:08:14;;;;;;;3.90;3.60;;;24.90;95.30;;;;;;5030675;28;20273;-50
2021/09/11 10:10:45;;;;;;;3.50;3.20;;;25.00;95.30;;;;;;5028917;28;20512;-49
2021/09/11 10:13:17;;;;;;;3.60;3.27;;;25.00;95.30;;;;;;5025228;28;20443;-49
2021/09/11 10:15:52;;;;;;;8.10;3.43;;;24.80;95.30;;;;;;5039536;28;20770;-49
2021/09/11 10:18:30;;;;;;;3.30;3.00;;;24.40;95.40;;;;;;5031576;28;20526;-49
2021/09/11 10:21:35;;;;;;;3.30;3.07;;;24.40;96.10;;;;;;5022374;28;20494;-49
2021/09/11 10:24:01;;;;;;;3.87;3.57;;;24.60;95.80;;;;;;5031425;28;20876;-49
2021/09/11 10:26:46;;;;;;;5.77;4.00;;;24.60;95.80;;;;;;5030101;28;20552;-50
2021/09/11 10:29:30;;;;;;;4.30;3.90;;;25.00;96.10;;;;;;5027098;28;20220;-50
2021/09/11 10:32:01;;;;;;;3.93;3.40;;;25.70;95.40;;;;;;5034122;28;20444;-50
2021/09/11 10:35:00;;;;;;;3.70;3.40;;;26.40;93.50;;;;;;5028467;28;20448;-47
2021/09/11 10:37:47;;;;;;;3.50;3.27;;;26.40;93.00;;;;;;5028864;28;20465;-48
2021/09/11 10:40:16;;;;;;;4.13;3.80;;;26.60;92.30;;;;;;5033865;28;20436;-48
2021/09/11 10:43:09;;;;;;;3.20;2.90;;;26.40;91.90;;;;;;5023579;28;20434;-48
2021/09/11 10:45:44;;;;;;;3.03;2.83;;;26.60;91.80;;;;;;5025840;28;20438;-47
2021/09/11 10:48:49;;;;;;;3.33;3.03;;;26.40;92.30;;;;;;5031988;28;20537;-48
2021/09/11 10:51:35;;;;;;;3.47;3.17;;;26.20;91.70;;;;;;5029141;28;20458;-48
2021/09/11 10:54:09;;;;;;;2.97;2.77;;;26.00;91.80;;;;;;5029134;28;20439;-47
2021/09/11 10:56:48;;;;;;;3.03;2.73;;;25.60;92.20;;;;;;5028075;28;20522;-49
2021/09/11 10:59:19;;;;;;;3.93;3.60;;;25.70;92.30;;;;;;5021271;28;20439;-49
2021/09/11 11:02:22;;;;;;;3.97;3.50;;;25.50;93.00;;;;;;5022490;28;20883;-48
2021/09/11 11:04:58;;;;;;;4.00;3.70;;;25.10;93.50;;;;;;5025301;28;20481;-49
2021/09/11 11:07:31;;;;;;;3.93;3.30;;;24.90;93.90;;;;;;5015441;28;20979;-49
2021/09/11 11:09:58;;;;;;;4.20;3.37;;;24.50;94.60;;;;;;5031664;28;20445;-49
2021/09/11 11:12:30;;;;;;;4.60;4.20;;;24.60;95.20;;;;;;5025334;28;20444;-49
2021/09/11 11:15:05;;;;;;;4.20;3.90;;;24.40;95.30;;;;;;5030392;28;20971;-49
2021/09/11 11:17:34;;;;;;;4.50;4.10;;;24.20;96.20;;;;;;5024980;28;20517;-49
2021/09/11 11:20:00;;;;;;;5.80;4.60;;;24.00;96.60;;;;;;5034212;28;20829;-49
2021/09/11 11:22:40;;;;;;;3.83;3.53;;;23.80;97.10;;;;;;5027096;28;20452;-49
2021/09/11 11:25:09;;;;;;;4.67;3.43;;;23.70;99.80;;;;;;5027854;28;20174;-49
2021/09/11 11:27:36;;;;;;;4.90;4.20;;;23.30;99.90;;;;;;5029275;28;20936;-49
2021/09/11 11:30:04;;;;;;;5.13;4.70;;;22.90;99.90;;;;;;5031314;28;20540;-48
2021/09/11 11:32:35;;;;;;;4.10;3.70;;;22.40;99.90;;;;;;5031385;28;20977;-49
2021/09/11 11:35:03;;;;;;;6.80;3.90;;;21.80;99.90;;;;;;5020854;28;20464;-49
2021/09/11 11:37:34;;;;;;;5.22;4.05;;;21.40;99.90;;;;;;5029908;28;20387;-49
2021/09/11 11:40:02;;;;;;;9.52;4.40;;;21.10;99.90;;;;;;5025146;28;20643;-49
2021/09/11 11:42:32;;;;;;;6.60;4.15;;;20.90;99.90;;;;;;5020774;28;20198;-49
2021/09/11 11:44:58;;;;;;;3.10;2.75;;;20.90;99.90;;;;;;5022354;28;20673;-48
2021/09/11 11:47:28;;;;;;;5.07;2.92;;;20.80;99.90;;;;;;5021282;28;20214;-49
2021/09/11 11:49:54;;;;;;;9.68;5.00;;;20.60;99.90;;;;;;5023641;28;20187;-49
2021/09/11 11:52:22;;;;;;;4.40;3.30;;;20.60;99.90;;;;;;5031873;28;20186;-49
2021/09/11 11:54:49;;;;;;;4.05;3.35;;;20.70;99.90;;;;;;5019884;28;20192;-49
2021/09/11 11:57:17;;;;;;;3.88;2.95;;;20.80;99.90;;;;;;5027748;28;20332;-48
2021/09/11 11:59:43;;;;;;;2.20;2.00;;;20.80;99.90;;;;;;5024332;28;20937;-48
2021/09/11 12:02:29;;;;;;;2.53;2.10;;;20.90;99.90;;;;;;5022253;28;20182;-49
2021/09/11 12:05:11;;;;;;;2.10;1.90;;;21.10;99.90;;;;;;5021746;28;20182;-48
2021/09/11 12:07:37;;;;;;;2.80;2.20;;;21.20;99.90;;;;;;5025646;28;20210;-49
2021/09/11 12:10:03;;;;;;;2.37;2.17;;;21.30;99.90;;;;;;5028303;28;20272;-48
2021/09/11 12:12:47;;;;;;;2.30;2.08;;;21.40;99.90;;;;;;5024293;28;20229;-48
2021/09/11 12:15:16;;;;;;;1.90;1.80;;;21.50;99.90;;;;;;5022046;28;20566;-49
2021/09/11 12:18:01;;;;;;;2.27;1.77;;;21.90;99.90;;;;;;5027312;28;20530;-49
2021/09/11 12:20:30;;;;;;;1.80;1.70;;;22.20;99.90;;;;;;5020079;28;20437;-49
2021/09/11 12:23:21;;;;;;;2.63;2.43;;;22.30;99.90;;;;;;5026627;28;20530;-49
2021/09/11 12:25:48;;;;;;;2.93;2.73;;;22.50;99.90;;;;;;5024814;28;20480;-49
2021/09/11 12:28:44;;;;;;;3.10;2.90;;;22.60;99.90;;;;;;5023888;28;20464;-49
2021/09/11 12:31:18;;;;;;;2.80;2.50;;;22.60;99.90;;;;;;5028987;28;20448;-49
2021/09/11 12:33:56;;;;;;;2.63;2.43;;;22.60;99.90;;;;;;5029756;28;20440;-49
2021/09/11 12:36:29;;;;;;;2.60;2.40;;;22.70;99.90;;;;;;5022772;28;20504;-49
2021/09/11 12:38:58;;;;;;;2.77;2.57;;;22.90;99.90;;;;;;5032515;28;20463;-49
2021/09/11 12:41:23;;;;;;;4.40;4.10;;;23.20;99.90;;;;;;5022477;28;20493;-49
2021/09/11 12:43:49;;;;;;;3.90;2.90;;;23.50;99.90;;;;;;5023440;28;20457;-49
2021/09/11 12:46:31;;;;;;;3.23;2.97;;;23.60;99.90;;;;;;5026005;28;20191;-49
2021/09/11 12:48:57;;;;;;;3.53;3.23;;;23.80;99.90;;;;;;5027872;28;20886;-49
2021/09/11 12:51:22;;;;;;;2.60;2.40;;;23.60;99.90;;;;;;5023026;28;20474;-49
2021/09/11 12:53:48;;;;;;;2.77;2.57;;;23.70;99.90;;;;;;5026962;28;20492;-49